Terminal Aerodrome Forecast
Issued by NWS

Home | Current Version | Previous Version | Text Only | Print | Product List | Glossary On
Versions: 1 2 3 4 5 6 7 8 9 10 11 12 13 14 15 16 17 18 19 20
744
FTUS43 KFGF 061720
TAFTVF
TAF
KTVF 061720Z 0618/0718 26021G29KT 2SM -SN OVC011
     FM061900 27023KT 2SM -SN BLSN OVC008
     FM062300 28024KT 1 1/2SM -SN BLSN OVC008
     FM070400 28027G35KT 2SM -SN BLSN OVC010
     FM070900 29022KT 3SM -SN BLSN OVC010
     FM071200 29018G29KT P6SM OVC010=

USA.gov is the U.S. government's official web portal to all federal, state and local government web resources and services.